Terminal Aerodrome Forecast
Issued by NWS

Home | Current Version | Previous Version | Text Only | Print | Product List | Glossary On
Versions: 1 2 3 4 5 6 7 8 9 10 11 12 13 14 15 16 17 18 19
000
FTUS44 KTSA 221721
TAFFYV
TAF
KFYV 221721Z 2218/2318 35008KT P6SM VCSH OVC010
      TEMPO 2218/2222 3SM -RA BR BKN005
     FM222200 35015G25KT P6SM BKN015
     FM230200 35012G18KT P6SM BKN025
     FM230400 32012KT P6SM BKN050
     FM230700 32005KT P6SM SKC=

USA.gov is the U.S. government's official web portal to all federal, state and local government web resources and services.